Data for 06/01/2006

Time Sea-Level Adjusted Pressure Absolute Pressure Temperature Relative Humidity Dew Point   
(mb) (inHg) (mb) (inHg) (C) (F) (%) (C) (F)
00:05 1024 30.24 853 25.19 11.3 52.3 48 0.6 33
00:10 1024 30.24 853 25.19 11.7 53 47 0.9 33.7
00:15 1024 30.24 853 25.19 11.7 53 47 0.8 33.5
00:20 1024 30.24 853 25.19 11.6 53 47 0.7 33.2
00:25 1024 30.24 853 25.19 11.6 52.9 49 1.4 34.4
00:30 1024 30.24 853 25.19 11.9 53.4 45 0.4 32.7
00:35 1024 30.24 853 25.19 11.7 53 46 0.6 33.1
00:40 1024 30.24 853 25.19 11.4 52.4 48 0.7 33.3
00:45 1024 30.24 853 25.19 11.3 52.4 48 0.8 33.4
00:50 1024 30.24 853 25.19 11.3 52.3 47 0.5 32.9
00:55 1024 30.24 853 25.19 11.3 52.4 47 0.4 32.8
01:00 1024 30.24 853 25.19 11.3 52.3 47 0.5 33
01:05 1024 30.24 853 25.19 11.3 52.4 46 0.3 32.6
01:10 1024 30.24 853 25.19 11.3 52.3 46 0.1 32.2
01:15 1024 30.24 853 25.19 11.3 52.3 46 0.2 32.4
01:20 1024 30.24 853 25.19 11.2 52.1 46 0.2 32.4
01:25 1024 30.24 853 25.19 11.2 52.2 47 0.2 32.4
01:30 1024 30.24 853 25.19 11.1 52 47 0.3 32.5
01:35 1024 30.24 853 25.19 11 51.8 47 0.3 32.5
01:40 1024 30.24 853 25.19 11 51.9 47 0.1 32.1
01:45 1024 30.24 853 25.19 11 51.9 46 -0.1 31.9
01:50 1023 30.21 853 25.19 11 51.7 47 0.1 32.2
01:55 1023 30.21 853 25.19 11 51.7 47 0 32
02:00 1023 30.21 853 25.19 10.9 51.7 46 -0.1 31.8
02:05 1023 30.21 853 25.19 10.9 51.6 45 -0.6 30.9
02:10 1024 30.24 853 25.19 10.9 51.6 44 -0.9 30.4
02:15 1024 30.24 853 25.19 10.7 51.3 44 -1.1 30
02:20 1024 30.24 853 25.19 10.6 51.1 44 -1.2 29.9
02:25 1024 30.24 853 25.19 10.4 50.8 44 -1.2 29.8
02:30 1024 30.24 853 25.19 10.2 50.3 44 -1.5 29.3
02:35 1024 30.24 853 25.19 10.4 50.6 42 -2 28.3
02:40 1024 30.24 853 25.19 10.7 51.2 40 -2.4 27.7
02:45 1024 30.24 853 25.19 11.1 52 38 -2.6 27.4
02:50 1024 30.24 853 25.19 11.3 52.3 39 -2.1 28.1
02:55 1024 30.24 853 25.19 11.2 52.1 40 -2 28.4
03:00 1024 30.24 853 25.19 10.8 51.5 41 -1.8 28.7
03:05 1024 30.24 853 25.19 10.5 51 42 -1.8 28.8
03:10 1024 30.24 853 25.19 10.5 50.9 43 -1.5 29.2
03:15 1024 30.24 853 25.19 10.2 50.4 43 -1.8 28.8
03:20 1024 30.24 853 25.19 10.1 50.1 44 -1.6 29.2
03:25 1024 30.24 853 25.19 10 49.9 43 -2 28.5
03:30 1024 30.24 853 25.19 9.9 49.8 43 -1.9 28.5
03:35 1024 30.24 853 25.19 9.6 49.3 42 -2.5 27.5
03:40 1024 30.24 853 25.19 9.9 49.9 41 -2.8 26.9
03:45 1024 30.24 853 25.19 10.2 50.3 39 -3.1 26.5
03:50 1024 30.24 853 25.19 10.2 50.3 40 -2.8 26.9
03:55 1024 30.24 853 25.19 9.9 49.8 41 -2.6 27.2
04:00 1024 30.24 853 25.19 9.7 49.5 40 -3 26.5
04:05 1024 30.24 853 25.19 9.8 49.6 39 -3.3 26
04:10 1024 30.24 853 25.19 9.6 49.4 40 -3.2 26.3
04:15 1024 30.24 853 25.19 9.5 49.1 40 -3.4 25.9
04:20 1024 30.24 853 25.19 8.9 48 43 -3 26.6
04:25 1024 30.24 853 25.19 8.7 47.7 39 -4.3 24.3
04:30 1024 30.24 853 25.19 9.2 48.6 38 -4.2 24.4
04:35 1024 30.24 853 25.19 9.2 48.5 40 -3.7 25.4
04:40 1024 30.24 853 25.19 9 48.2 41 -3.4 26
04:45 1024 30.24 853 25.19 8.7 47.7 43 -3.1 26.5
04:50 1024 30.24 853 25.19 8.7 47.7 42 -3.5 25.7
04:55 1024 30.24 853 25.19 8.9 48 42 -3.4 25.8
05:00 1024 30.24 853 25.19 8.9 47.9 42 -3.2 26.2
05:05 1024 30.24 853 25.19 9 48.1 42 -3.1 26.4
05:10 1024 30.24 853 25.19 8.8 47.8 43 -3.1 26.5
05:15 1024 30.24 853 25.19 8.7 47.7 43 -3 26.6
05:20 1024 30.24 853 25.19 8.8 47.8 44 -2.9 26.7
05:25 1024 30.24 853 25.19 8.8 47.9 43 -3.1 26.4
05:30 1024 30.24 853 25.19 9 48.1 43 -3 26.6
05:35 1024 30.24 853 25.19 8.9 48.1 44 -2.7 27.1
05:40 1024 30.24 853 25.19 8.9 48.1 43 -2.9 26.8
05:45 1024 30.24 853 25.19 9.1 48.3 43 -2.7 27.2
05:50 1024 30.24 853 25.19 9 48.3 44 -2.7 27.2
05:55 1024 30.24 853 25.19 9.2 48.5 43 -2.6 27.2
06:00 1024 30.24 853 25.19 9.3 48.7 42 -2.8 26.9
06:05 1024 30.24 853 25.19 9.5 49.2 41 -3 26.7
06:10 1024 30.24 853 25.19 9.7 49.5 41 -2.8 27
06:15 1024 30.24 853 25.19 9.6 49.3 42 -2.7 27.1
06:20 1024 30.24 853 25.19 9.7 49.4 41 -2.8 27
06:25 1024 30.24 853 25.19 9.8 49.6 42 -2.6 27.3
06:30 1024 30.24 853 25.19 9.7 49.5 42 -2.4 27.7
06:35 1024 30.24 853 25.19 9.7 49.5 42 -2.5 27.5
06:40 1024 30.24 853 25.19 9.8 49.6 41 -2.7 27.1
06:45 1023 30.21 853 25.19 10.1 50.2 39 -3.1 26.4
06:50 1023 30.21 853 25.19 10.5 50.8 38 -3.2 26.3
06:55 1023 30.21 853 25.19 10.5 51 39 -2.9 26.8
07:00 1023 30.21 853 25.19 10.6 51.1 38 -2.9 26.8
07:05 1023 30.21 853 25.19 10.8 51.4 39 -2.6 27.3
07:10 1023 30.21 853 25.19 10.9 51.5 39 -2.5 27.5
07:15 1023 30.21 853 25.19 11.1 51.9 37 -3 26.6
07:20 1023 30.21 853 25.19 11.4 52.6 37 -2.7 27.1
07:25 1023 30.21 853 25.19 11.9 53.3 35 -3.2 26.3
07:30 1023 30.21 853 25.19 11.9 53.5 34 -3.2 26.2
07:35 1024 30.24 853 25.19 12.1 53.8 41 -0.7 30.7
07:40 1024 30.24 853 25.19 12 53.5 43 -0.2 31.6
07:45 1024 30.24 853 25.19 11.8 53.2 41 -1.1 29.9
07:50 1024 30.24 853 25.19 12 53.6 37 -2.3 27.9
07:55 1024 30.24 853 25.19 12.4 54.4 35 -2.6 27.3
08:00 1024 30.24 853 25.19 12.7 54.9 33 -3.3 26.1
08:05 1024 30.24 853 25.19 13.1 55.5 35 -2.2 28.1
08:10 1024 30.24 853 25.19 13.1 55.6 36 -1.5 29.3
08:15 1024 30.24 853 25.19 13.3 55.9 40 0.1 32.3
08:20 1024 30.24 853 25.19 13.3 55.9 43 1.1 34
08:25 1024 30.24 853 25.19 12.8 55 46 1.5 34.6
08:30 1024 30.24 853 25.19 12.6 54.6 46 1.4 34.4
08:35 1024 30.24 853 25.19 13.2 55.8 43 1 33.9
08:40 1024 30.24 853 25.19 13.4 56.1 44 1.5 34.8
08:45 1024 30.24 853 25.19 13.7 56.6 41 0.7 33.3
08:50 1024 30.24 853 25.19 13.8 56.8 39 0 32
08:55 1024 30.24 853 25.19 13.9 57.1 38 -0.1 31.8
09:00 1024 30.24 853 25.19 14.3 57.7 39 0.4 32.8
09:05 1024 30.24 853 25.19 14.3 57.7 39 0.5 32.9
09:10 1024 30.24 853 25.19 14.3 57.7 38 0.1 32.2
09:15 1024 30.24 853 25.19 14.2 57.6 38 0.1 32.3
09:20 1024 30.24 853 25.19 15.1 59.1 35 -0.3 31.5
09:25 1024 30.24 853 25.19 15.6 60.1 34 0 32.1
09:30 1024 30.24 853 25.19 16.2 61.1 33 -0.1 31.9
09:35 1024 30.24 853 25.19 17 62.6 32 0.2 32.3
09:40 1024 30.24 853 25.19 16.9 62.5 32 0.3 32.5
09:45 1024 30.24 853 25.19 17.6 63.6 31 0.2 32.3
09:50 1024 30.24 853 25.19 17.6 63.7 33 1.2 34.2
09:55 1024 30.24 853 25.19 16.7 62 36 1.5 34.7
10:00 1024 30.24 853 25.19 16.8 62.3 34 1.1 33.9
10:05 1024 30.24 853 25.19 17.5 63.5 31 0.5 32.9
10:10 1024 30.24 853 25.19 18.4 65.2 33 1.9 35.5
10:15 1023 30.21 853 25.19 18.7 65.7 30 0.7 33.3
10:20 1023 30.21 853 25.19 18.9 66.1 29 0.5 32.8
10:25 1023 30.21 853 25.19 19.1 66.5 27 -0.4 31.3
10:30 1023 30.21 853 25.19 19.5 67 27 0.1 32.2
10:35 1023 30.21 852 25.16 20 68 26 0.3 32.5
10:40 1023 30.21 852 25.16 20.3 68.5 25 0 32
10:45 1023 30.21 852 25.16 20.3 68.5 23 -1.3 29.6
10:50 1023 30.21 852 25.16 20.8 69.4 22 -1.3 29.6
10:55 1023 30.21 852 25.16 21.5 70.6 22 -0.8 30.5
11:00 1023 30.21 852 25.16 21.7 71 24 0.6 33
11:05 1023 30.21 852 25.16 21.9 71.4 25 1.3 34.4
11:10 1023 30.21 852 25.16 21.9 71.3 25 1 33.8
11:15 1023 30.21 852 25.16 22.1 71.7 27 2.4 36.4
11:20 1023 30.21 852 25.16 21.6 70.8 29 3 37.4
11:25 1023 30.21 852 25.16 21.7 71.1 29 3 37.5
11:30 1023 30.21 852 25.16 21.7 71.1 28 2.8 37.1
11:35 1023 30.21 852 25.16 22 71.7 27 2.4 36.4
11:40 1023 30.21 852 25.16 22.1 71.7 28 3.1 37.6
11:45 1023 30.21 852 25.16 21.1 70 30 3.2 37.7
11:50 1023 30.21 852 25.16 21 69.8 30 2.8 37
11:55 1023 30.21 852 25.16 21.4 70.5 27 1.8 35.2
12:00 1023 30.21 852 25.16 21.8 71.3 27 2.3 36.2
12:05 1023 30.21 852 25.16 21.9 71.5 26 1.9 35.4
12:10 1023 30.21 852 25.16 22.6 72.7 25 1.7 35
12:15 1023 30.21 852 25.16 22.1 71.8 27 2.4 36.3
12:20 1023 30.21 852 25.16 21.9 71.4 27 2.1 35.8
12:25 1023 30.21 852 25.16 21.6 70.8 25 0.9 33.7
12:30 1023 30.21 852 25.16 22.3 72.1 24 0.9 33.7
12:35 1023 30.21 852 25.16 22.9 73.2 24 1.3 34.4
12:40 1023 30.21 852 25.16 23.4 74.2 22 0.9 33.7
12:45 1023 30.21 852 25.16 24.2 75.6 24 2.7 36.9
12:50 1023 30.21 852 25.16 24.3 75.7 20 -0 32
12:55 1023 30.21 852 25.16 24.2 75.6 18 -1.3 29.7
13:00 1022 30.18 852 25.16 25 77 19 -0.3 31.5
13:05 1022 30.18 852 25.16 23.8 74.8 20 -0.6 30.9
13:10 1022 30.18 852 25.16 23.4 74.2 23 1.1 34
13:15 1022 30.18 852 25.16 23.6 74.5 19 -1 30.2
13:20 1022 30.18 851 25.13 23.7 74.7 19 -0.8 30.6
13:25 1022 30.18 851 25.13 24.1 75.3 21 0.8 33.4
13:30 1022 30.18 851 25.13 23.8 74.9 21 0.3 32.5
13:35 1022 30.18 851 25.13 23.4 74.1 18 -2.1 28.1
13:40 1022 30.18 851 25.13 24.4 75.8 19 -0.2 31.6
13:45 1022 30.18 851 25.13 24.1 75.4 20 0.2 32.3
13:50 1022 30.18 851 25.13 24.4 75.9 19 -0.5 31.1
13:55 1022 30.18 851 25.13 24.4 75.9 20 -0 32
14:00 1022 30.18 851 25.13 24.1 75.3 19 -0.5 31
14:05 1022 30.18 851 25.13 24.3 75.7 18 -1.1 30.1
14:10 1022 30.18 851 25.13 25 76.9 18 -0.8 30.5
14:15 1022 30.18 851 25.13 25.5 77.8 16 -2.2 28.1
14:20 1022 30.18 851 25.13 25.6 78 16 -1.6 29.2
14:25 1022 30.18 851 25.13 25.8 78.5 15 -2.4 27.8
14:30 1022 30.18 851 25.13 25.6 78 16 -1.9 28.7
14:35 1022 30.18 851 25.13 25.1 77.1 16 -2.5 27.5
14:40 1022 30.18 851 25.13 25.6 78.1 16 -2.1 28.1
14:45 1022 30.18 851 25.13 25.2 77.4 15 -2.9 26.8
14:50 1022 30.18 851 25.13 24.3 75.8 17 -2.1 28.2
14:55 1022 30.18 851 25.13 24.7 76.5 17 -2 28.4
15:00 1022 30.18 851 25.13 24.5 76 18 -1 30.2
15:05 1022 30.18 851 25.13 25.1 77.2 15 -2.7 27.2
15:10 1021 30.15 851 25.13 25.6 78 15 -2.6 27.4
15:15 1022 30.18 851 25.13 26.2 79.1 15 -2.3 27.9
15:20 1021 30.15 851 25.13 26.8 80.2 15 -1.9 28.6
15:25 1021 30.15 851 25.13 26.3 79.4 15 -2.5 27.5
15:30 1021 30.15 851 25.13 26.4 79.5 15 -2.2 28
15:35 1021 30.15 851 25.13 26.2 79.1 15 -2.1 28.3
15:40 1021 30.15 851 25.13 25.3 77.5 16 -2.5 27.5
15:45 1021 30.15 850 25.1 25.9 78.6 15 -2.2 28
15:50 1021 30.15 850 25.1 26 78.8 16 -1.9 28.6
15:55 1021 30.15 850 25.1 25.2 77.3 16 -2.2 28
16:00 1021 30.15 850 25.1 25.7 78.2 15 -2.3 27.8
16:05 1021 30.15 850 25.1 25.1 77.1 16 -2.6 27.4
16:10 1021 30.15 850 25.1 24.2 75.5 16 -2.8 27
16:15 1021 30.15 850 25.1 24.3 75.7 16 -3 26.6
16:20 1021 30.15 850 25.1 24.9 76.9 16 -2.6 27.4
16:25 1021 30.15 850 25.1 26 78.7 15 -2.5 27.6
16:30 1021 30.15 850 25.1 26.4 79.5 15 -2 28.4
16:35 1021 30.15 850 25.1 26.4 79.6 15 -1.9 28.6
16:40 1021 30.15 850 25.1 25.9 78.6 16 -1.9 28.6
16:45 1021 30.15 850 25.1 25.7 78.3 16 -2 28.5
16:50 1021 30.15 850 25.1 25 77.1 16 -2.2 28
16:55 1021 30.15 850 25.1 25 77 16 -2.3 27.8
17:00 1021 30.15 850 25.1 25.2 77.3 18 -0.9 30.4
17:05 1021 30.15 850 25.1 25.6 78 17 -1.1 30
17:10 1021 30.15 850 25.1 25.5 77.8 17 -1.4 29.4
17:15 1021 30.15 850 25.1 25.7 78.2 17 -0.6 31
17:20 1021 30.15 850 25.1 26.6 79.9 16 -1.1 30.1
17:25 1020 30.12 850 25.1 25.7 78.2 18 -0.5 31.2
17:30 1020 30.12 850 25.1 25.5 77.9 18 -0.4 31.3
17:35 1020 30.12 850 25.1 25.1 77.2 18 -0.7 30.7
17:40 1020 30.12 850 25.1 24.8 76.6 19 -0.1 31.7
17:45 1020 30.12 850 25.1 24.4 75.9 19 -0.2 31.6
17:50 1020 30.12 850 25.1 24.6 76.2 19 -0.6 31
17:55 1020 30.12 850 25.1 24.1 75.3 19 -0.5 31
18:00 1020 30.12 850 25.1 24 75.1 20 -0.2 31.6
18:05 1020 30.12 849 25.07 24.9 76.8 18 -0.7 30.7
18:10 1020 30.12 849 25.07 24.8 76.7 19 -0.3 31.5
18:15 1020 30.12 849 25.07 24.5 76.2 19 -0.5 31.2
18:20 1020 30.12 849 25.07 24.4 75.8 19 -0.5 31.1
18:25 1020 30.12 849 25.07 24.4 75.9 19 -0.4 31.2
18:30 1020 30.12 849 25.07 24.5 76.1 19 -0.7 30.8
18:35 1020 30.12 849 25.07 24.2 75.5 19 -0.6 30.9
18:40 1020 30.12 849 25.07 24.2 75.5 19 -0.7 30.8
18:45 1020 30.12 849 25.07 24.1 75.4 20 -0 32
18:50 1020 30.12 849 25.07 23.9 75 20 -0.2 31.7
18:55 1020 30.12 849 25.07 23.8 74.8 22 1 33.7
19:00 1020 30.12 849 25.07 23.8 74.8 25 2.7 36.9
19:05 1020 30.12 849 25.07 23.9 75 20 0 32
19:10 1020 30.12 849 25.07 24 75.2 26 3.5 38.2
19:15 1020 30.12 849 25.07 23.7 74.7 25 3 37.3
19:20 1020 30.12 849 25.07 23.2 73.8 28 3.8 38.9
19:25 1020 30.12 849 25.07 22.8 73.1 28 3.4 38.1
19:30 1020 30.12 849 25.07 22.7 72.9 32 5.2 41.4
19:35 1020 30.12 849 25.07 22.7 72.8 29 4.1 39.4
19:40 1020 30.12 849 25.07 22.3 72.2 33 5.5 41.9
19:45 1020 30.12 849 25.07 22.2 72 30 3.8 38.9
19:50 1020 30.12 849 25.07 22.2 71.9 34 5.6 42
19:55 1020 30.12 849 25.07 22 71.6 32 4.5 40.1
20:00 1020 30.12 849 25.07 21.9 71.4 32 4.8 40.6
20:05 1020 30.12 849 25.07 21.8 71.2 34 5.4 41.7
20:10 1020 30.12 849 25.07 21.6 71 32 4.6 40.3
20:15 1020 30.12 849 25.07 21.5 70.7 32 4.4 40
20:20 1020 30.12 849 25.07 21.2 70.2 35 5.2 41.4
20:25 1020 30.12 849 25.07 20.9 69.6 37 6 42.8
20:30 1020 30.12 849 25.07 20.7 69.3 36 5.1 41.3
20:35 1020 30.12 849 25.07 20.3 68.6 38 5.6 42.1
20:40 1020 30.12 849 25.07 20 68 38 5.4 41.6
20:45 1020 30.12 849 25.07 19.9 67.8 39 5.7 42.2
20:50 1020 30.12 849 25.07 19.9 67.8 38 5.2 41.3
20:55 1020 30.12 849 25.07 19.8 67.7 39 5.5 42
21:00 1020 30.12 849 25.07 19.5 67 41 5.8 42.5
21:05 1020 30.12 849 25.07 19.4 66.8 38 5 41
21:10 1020 30.12 849 25.07 19.5 67.2 35 4 39.1
21:15 1020 30.12 849 25.07 19.7 67.5 34 3.8 38.8
21:20 1020 30.12 849 25.07 19.7 67.5 34 3.8 38.8
21:25 1020 30.12 849 25.07 19.8 67.6 34 3.7 38.7
21:30 1020 30.12 849 25.07 19.6 67.3 35 3.8 38.8
21:35 1020 30.12 849 25.07 19.2 66.5 38 4.8 40.6
21:40 1020 30.12 849 25.07 18.6 65.5 40 4.9 40.8
21:45 1020 30.12 849 25.07 18.6 65.4 38 4 39.2
21:50 1020 30.12 849 25.07 18.4 65.2 42 5.5 42
21:55 1020 30.12 849 25.07 17.3 63.1 49 6.6 43.9
22:00 1020 30.12 850 25.1 16.6 61.8 48 5.6 42.1
22:05 1020 30.12 850 25.1 16.3 61.4 46 4.7 40.4
22:10 1020 30.12 850 25.1 16.5 61.8 49 6 42.8
22:15 1020 30.12 850 25.1 16.9 62.4 43 4.2 39.5
22:20 1020 30.12 850 25.1 17 62.6 43 4.3 39.8
22:25 1020 30.12 850 25.1 17.1 62.8 40 3.5 38.3
22:30 1020 30.12 850 25.1 17.9 64.2 38 3.6 38.4
22:35 1020 30.12 850 25.1 17.7 63.8 41 4.3 39.8
22:40 1020 30.12 850 25.1 17.5 63.4 39 3.3 38
22:45 1020 30.12 850 25.1 18 64.4 36 2.9 37.3
22:50 1020 30.12 850 25.1 18.2 64.7 37 3.2 37.8
22:55 1020 30.12 850 25.1 18 64.3 39 3.8 38.9
23:00 1020 30.12 850 25.1 17.8 64 38 3.2 37.8
23:05 1020 30.12 850 25.1 17.8 64 37 3.1 37.6
23:10 1020 30.12 850 25.1 17.7 63.8 38 3.2 37.8
23:15 1020 30.12 850 25.1 17.6 63.6 38 3.2 37.8
23:20 1020 30.12 849 25.07 17.3 63.2 40 3.7 38.7
23:25 1020 30.12 849 25.07 16.6 61.9 42 3.8 38.8
23:30 1020 30.12 849 25.07 16.3 61.3 44 4.1 39.4
23:35 1020 30.12 850 25.1 16 60.7 45 4.3 39.7
23:40 1020 30.12 849 25.07 15.8 60.5 42 3.2 37.7
23:45 1020 30.12 849 25.07 16.4 61.4 40 2.8 37
23:50 1020 30.12 849 25.07 16.9 62.4 37 2.3 36.1
23:55 1020 30.12 849 25.07 17.5 63.5 34 1.7 35.1
24:00 1020 30.12 849 25.07 17.7 63.9 35 2.1 35.7